sensor_id;sensor_type;location;lat;lon;timestamp;P1;durP1;ratioP1;P2;durP2;ratioP2
45802;SDS011;31504;51.716;9.184;2022-08-18T00:01:03;9.82;;;9.00;;
45802;SDS011;31504;51.716;9.184;2022-08-18T00:04:04;10.93;;;9.82;;
45802;SDS011;31504;51.716;9.184;2022-08-18T00:07:05;10.98;;;10.00;;
45802;SDS011;31504;51.716;9.184;2022-08-18T00:10:08;11.70;;;10.50;;
45802;SDS011;31504;51.716;9.184;2022-08-18T00:13:08;10.07;;;9.07;;
45802;SDS011;31504;51.716;9.184;2022-08-18T00:16:09;10.63;;;9.63;;
45802;SDS011;31504;51.716;9.184;2022-08-18T00:19:10;10.75;;;9.68;;
45802;SDS011;31504;51.716;9.184;2022-08-18T00:22:11;10.93;;;9.95;;
45802;SDS011;31504;51.716;9.184;2022-08-18T00:25:14;11.73;;;10.25;;
45802;SDS011;31504;51.716;9.184;2022-08-18T00:28:15;11.00;;;10.05;;
45802;SDS011;31504;51.716;9.184;2022-08-18T00:31:16;10.73;;;9.63;;
45802;SDS011;31504;51.716;9.184;2022-08-18T00:34:17;10.73;;;9.63;;
45802;SDS011;31504;51.716;9.184;2022-08-18T00:37:18;10.60;;;9.70;;
45802;SDS011;31504;51.716;9.184;2022-08-18T00:40:21;11.90;;;10.68;;
45802;SDS011;31504;51.716;9.184;2022-08-18T00:43:29;11.45;;;10.43;;
45802;SDS011;31504;51.716;9.184;2022-08-18T00:46:36;11.07;;;10.07;;
45802;SDS011;31504;51.716;9.184;2022-08-18T00:49:37;11.88;;;10.88;;
45802;SDS011;31504;51.716;9.184;2022-08-18T00:52:42;10.77;;;9.88;;
45802;SDS011;31504;51.716;9.184;2022-08-18T00:55:46;11.18;;;10.18;;
45802;SDS011;31504;51.716;9.184;2022-08-18T00:58:54;11.80;;;10.80;;
45802;SDS011;31504;51.716;9.184;2022-08-18T01:02:19;12.70;;;11.60;;
45802;SDS011;31504;51.716;9.184;2022-08-18T01:05:34;11.93;;;10.60;;
45802;SDS011;31504;51.716;9.184;2022-08-18T01:08:42;11.10;;;10.02;;
45802;SDS011;31504;51.716;9.184;2022-08-18T01:11:43;13.32;;;11.38;;
45802;SDS011;31504;51.716;9.184;2022-08-18T01:14:43;11.10;;;10.10;;
45802;SDS011;31504;51.716;9.184;2022-08-18T01:17:45;11.57;;;10.52;;
45802;SDS011;31504;51.716;9.184;2022-08-18T01:21:19;10.98;;;10.07;;
45802;SDS011;31504;51.716;9.184;2022-08-18T01:24:43;11.95;;;10.88;;
45802;SDS011;31504;51.716;9.184;2022-08-18T01:28:03;11.93;;;10.90;;
45802;SDS011;31504;51.716;9.184;2022-08-18T01:31:05;11.13;;;10.23;;
45802;SDS011;31504;51.716;9.184;2022-08-18T01:34:08;12.23;;;11.23;;
45802;SDS011;31504;51.716;9.184;2022-08-18T01:37:09;11.98;;;10.80;;
45802;SDS011;31504;51.716;9.184;2022-08-18T01:40:12;12.32;;;11.25;;
45802;SDS011;31504;51.716;9.184;2022-08-18T01:43:14;11.60;;;10.60;;
45802;SDS011;31504;51.716;9.184;2022-08-18T01:46:20;13.15;;;12.05;;
45802;SDS011;31504;51.716;9.184;2022-08-18T01:49:22;14.20;;;11.15;;
45802;SDS011;31504;51.716;9.184;2022-08-18T01:52:22;12.93;;;11.63;;
45802;SDS011;31504;51.716;9.184;2022-08-18T01:55:23;12.45;;;11.25;;
45802;SDS011;31504;51.716;9.184;2022-08-18T01:58:27;17.13;;;11.30;;
45802;SDS011;31504;51.716;9.184;2022-08-18T02:01:27;11.80;;;10.85;;
45802;SDS011;31504;51.716;9.184;2022-08-18T02:04:29;12.60;;;11.40;;
45802;SDS011;31504;51.716;9.184;2022-08-18T02:07:34;11.20;;;10.20;;
45802;SDS011;31504;51.716;9.184;2022-08-18T02:10:37;12.90;;;11.70;;
45802;SDS011;31504;51.716;9.184;2022-08-18T02:13:38;12.52;;;11.35;;
45802;SDS011;31504;51.716;9.184;2022-08-18T02:16:39;12.85;;;11.55;;
45802;SDS011;31504;51.716;9.184;2022-08-18T02:19:41;12.73;;;11.43;;
45802;SDS011;31504;51.716;9.184;2022-08-18T02:22:44;13.00;;;11.85;;
45802;SDS011;31504;51.716;9.184;2022-08-18T02:25:46;12.90;;;11.80;;
45802;SDS011;31504;51.716;9.184;2022-08-18T02:28:46;13.60;;;12.20;;
45802;SDS011;31504;51.716;9.184;2022-08-18T02:31:47;13.07;;;11.88;;
45802;SDS011;31504;51.716;9.184;2022-08-18T02:34:47;12.82;;;11.73;;
45802;SDS011;31504;51.716;9.184;2022-08-18T02:37:48;13.05;;;11.95;;
45802;SDS011;31504;51.716;9.184;2022-08-18T02:40:53;13.57;;;12.38;;
45802;SDS011;31504;51.716;9.184;2022-08-18T02:43:59;13.73;;;12.50;;
45802;SDS011;31504;51.716;9.184;2022-08-18T02:47:00;13.18;;;11.88;;
45802;SDS011;31504;51.716;9.184;2022-08-18T02:50:00;14.35;;;13.05;;
45802;SDS011;31504;51.716;9.184;2022-08-18T02:53:01;13.95;;;12.65;;
45802;SDS011;31504;51.716;9.184;2022-08-18T02:56:21;13.40;;;12.18;;
45802;SDS011;31504;51.716;9.184;2022-08-18T02:59:24;14.82;;;13.52;;
45802;SDS011;31504;51.716;9.184;2022-08-18T03:02:26;13.82;;;12.70;;
45802;SDS011;31504;51.716;9.184;2022-08-18T03:05:26;14.25;;;12.90;;
45802;SDS011;31504;51.716;9.184;2022-08-18T03:08:29;14.00;;;12.73;;
45802;SDS011;31504;51.716;9.184;2022-08-18T03:11:29;12.70;;;11.55;;
45802;SDS011;31504;51.716;9.184;2022-08-18T03:14:30;13.20;;;12.02;;
45802;SDS011;31504;51.716;9.184;2022-08-18T03:17:33;15.48;;;13.32;;
45802;SDS011;31504;51.716;9.184;2022-08-18T03:20:34;16.52;;;15.02;;
45802;SDS011;31504;51.716;9.184;2022-08-18T03:23:35;18.77;;;16.98;;
45802;SDS011;31504;51.716;9.184;2022-08-18T03:26:40;23.00;;;20.63;;
45802;SDS011;31504;51.716;9.184;2022-08-18T03:29:43;26.40;;;23.67;;
45802;SDS011;31504;51.716;9.184;2022-08-18T03:32:43;39.35;;;35.28;;
45802;SDS011;31504;51.716;9.184;2022-08-18T03:35:45;51.33;;;45.70;;
45802;SDS011;31504;51.716;9.184;2022-08-18T03:38:46;57.92;;;51.78;;
45802;SDS011;31504;51.716;9.184;2022-08-18T03:41:49;54.45;;;48.60;;
45802;SDS011;31504;51.716;9.184;2022-08-18T03:44:53;55.70;;;49.65;;
45802;SDS011;31504;51.716;9.184;2022-08-18T03:47:53;56.58;;;50.58;;
45802;SDS011;31504;51.716;9.184;2022-08-18T03:50:54;54.42;;;48.72;;
45802;SDS011;31504;51.716;9.184;2022-08-18T03:53:55;53.72;;;48.17;;
45802;SDS011;31504;51.716;9.184;2022-08-18T03:57:00;50.15;;;44.67;;
45802;SDS011;31504;51.716;9.184;2022-08-18T04:00:01;48.90;;;43.85;;
45802;SDS011;31504;51.716;9.184;2022-08-18T04:03:03;48.58;;;43.70;;
45802;SDS011;31504;51.716;9.184;2022-08-18T04:06:04;45.13;;;40.42;;
45802;SDS011;31504;51.716;9.184;2022-08-18T04:09:06;43.40;;;39.03;;
45802;SDS011;31504;51.716;9.184;2022-08-18T04:12:12;44.17;;;39.33;;
45802;SDS011;31504;51.716;9.184;2022-08-18T04:15:14;39.95;;;35.67;;
45802;SDS011;31504;51.716;9.184;2022-08-18T04:18:15;38.00;;;34.03;;
45802;SDS011;31504;51.716;9.184;2022-08-18T04:21:16;37.92;;;34.15;;
45802;SDS011;31504;51.716;9.184;2022-08-18T04:24:17;32.35;;;29.15;;
45802;SDS011;31504;51.716;9.184;2022-08-18T04:27:19;31.63;;;28.45;;
45802;SDS011;31504;51.716;9.184;2022-08-18T04:30:21;31.35;;;28.13;;
45802;SDS011;31504;51.716;9.184;2022-08-18T04:33:22;27.27;;;24.50;;
45802;SDS011;31504;51.716;9.184;2022-08-18T04:36:23;26.63;;;24.13;;
45802;SDS011;31504;51.716;9.184;2022-08-18T04:39:24;25.38;;;22.70;;
45802;SDS011;31504;51.716;9.184;2022-08-18T04:42:24;23.85;;;21.45;;
45802;SDS011;31504;51.716;9.184;2022-08-18T04:45:25;23.85;;;21.55;;
45802;SDS011;31504;51.716;9.184;2022-08-18T04:48:26;22.73;;;20.55;;
45802;SDS011;31504;51.716;9.184;2022-08-18T04:51:32;21.33;;;19.13;;
45802;SDS011;31504;51.716;9.184;2022-08-18T04:54:33;21.20;;;19.20;;
45802;SDS011;31504;51.716;9.184;2022-08-18T04:57:37;20.58;;;18.67;;
45802;SDS011;31504;51.716;9.184;2022-08-18T05:00:38;19.77;;;17.88;;
45802;SDS011;31504;51.716;9.184;2022-08-18T05:03:38;19.00;;;17.30;;
45802;SDS011;31504;51.716;9.184;2022-08-18T05:06:40;19.42;;;17.35;;
45802;SDS011;31504;51.716;9.184;2022-08-18T05:09:42;16.90;;;15.35;;
45802;SDS011;31504;51.716;9.184;2022-08-18T05:12:45;18.25;;;16.55;;
45802;SDS011;31504;51.716;9.184;2022-08-18T05:15:51;17.00;;;15.30;;
45802;SDS011;31504;51.716;9.184;2022-08-18T05:18:52;18.10;;;16.45;;
45802;SDS011;31504;51.716;9.184;2022-08-18T05:21:54;19.52;;;17.45;;
45802;SDS011;31504;51.716;9.184;2022-08-18T05:24:56;18.27;;;16.40;;
45802;SDS011;31504;51.716;9.184;2022-08-18T05:27:57;19.60;;;17.80;;
45802;SDS011;31504;51.716;9.184;2022-08-18T05:30:57;23.70;;;21.27;;
45802;SDS011;31504;51.716;9.184;2022-08-18T05:33:58;25.08;;;22.77;;
45802;SDS011;31504;51.716;9.184;2022-08-18T05:40:25;27.52;;;24.70;;
45802;SDS011;31504;51.716;9.184;2022-08-18T05:43:27;27.52;;;24.83;;
45802;SDS011;31504;51.716;9.184;2022-08-18T05:46:37;27.40;;;24.73;;
45802;SDS011;31504;51.716;9.184;2022-08-18T05:49:45;29.95;;;27.02;;
45802;SDS011;31504;51.716;9.184;2022-08-18T05:53:00;29.27;;;26.30;;
45802;SDS011;31504;51.716;9.184;2022-08-18T05:56:08;31.80;;;28.65;;
45802;SDS011;31504;51.716;9.184;2022-08-18T05:59:30;30.92;;;27.85;;
45802;SDS011;31504;51.716;9.184;2022-08-18T06:02:34;31.35;;;28.17;;
45802;SDS011;31504;51.716;9.184;2022-08-18T06:05:55;35.72;;;31.80;;
45802;SDS011;31504;51.716;9.184;2022-08-18T06:09:11;41.78;;;37.53;;
45802;SDS011;31504;51.716;9.184;2022-08-18T06:12:31;39.95;;;35.78;;
45802;SDS011;31504;51.716;9.184;2022-08-18T06:22:12;55.53;;;49.40;;
45802;SDS011;31504;51.716;9.184;2022-08-18T06:29:01;60.80;;;54.30;;
45802;SDS011;31504;51.716;9.184;2022-08-18T06:32:12;66.57;;;59.55;;
45802;SDS011;31504;51.716;9.184;2022-08-18T06:35:32;69.07;;;61.65;;
45802;SDS011;31504;51.716;9.184;2022-08-18T06:41:51;79.82;;;70.80;;
45802;SDS011;31504;51.716;9.184;2022-08-18T06:44:54;71.45;;;63.75;;
45802;SDS011;31504;51.716;9.184;2022-08-18T06:48:16;65.70;;;58.83;;
45802;SDS011;31504;51.716;9.184;2022-08-18T06:54:27;58.35;;;52.17;;
45802;SDS011;31504;51.716;9.184;2022-08-18T06:57:38;56.50;;;50.42;;
45802;SDS011;31504;51.716;9.184;2022-08-18T07:03:53;50.40;;;45.08;;
45802;SDS011;31504;51.716;9.184;2022-08-18T07:06:55;48.20;;;43.30;;
45802;SDS011;31504;51.716;9.184;2022-08-18T07:09:56;45.85;;;41.15;;
45802;SDS011;31504;51.716;9.184;2022-08-18T07:13:07;44.83;;;39.42;;
45802;SDS011;31504;51.716;9.184;2022-08-18T07:19:16;40.70;;;36.65;;
45802;SDS011;31504;51.716;9.184;2022-08-18T07:22:19;40.30;;;35.60;;
45802;SDS011;31504;51.716;9.184;2022-08-18T07:25:21;41.53;;;37.13;;
45802;SDS011;31504;51.716;9.184;2022-08-18T07:28:36;39.63;;;35.38;;
45802;SDS011;31504;51.716;9.184;2022-08-18T07:31:47;37.45;;;33.42;;
45802;SDS011;31504;51.716;9.184;2022-08-18T07:34:52;38.33;;;34.22;;
45802;SDS011;31504;51.716;9.184;2022-08-18T07:37:59;39.08;;;34.80;;
45802;SDS011;31504;51.716;9.184;2022-08-18T07:41:20;42.20;;;36.42;;
45802;SDS011;31504;51.716;9.184;2022-08-18T07:44:42;40.25;;;35.88;;
45802;SDS011;31504;51.716;9.184;2022-08-18T07:47:52;40.38;;;36.00;;
45802;SDS011;31504;51.716;9.184;2022-08-18T07:54:08;48.05;;;37.88;;
45802;SDS011;31504;51.716;9.184;2022-08-18T07:57:20;44.05;;;36.75;;
45802;SDS011;31504;51.716;9.184;2022-08-18T08:00:37;43.35;;;37.08;;
45802;SDS011;31504;51.716;9.184;2022-08-18T08:06:58;45.95;;;38.35;;
45802;SDS011;31504;51.716;9.184;2022-08-18T08:20:30;48.08;;;37.67;;
45802;SDS011;31504;51.716;9.184;2022-08-18T08:23:47;44.50;;;36.80;;
45802;SDS011;31504;51.716;9.184;2022-08-18T08:26:59;46.60;;;37.97;;
45802;SDS011;31504;51.716;9.184;2022-08-18T08:30:20;46.95;;;36.92;;
45802;SDS011;31504;51.716;9.184;2022-08-18T08:33:27;48.70;;;39.10;;
45802;SDS011;31504;51.716;9.184;2022-08-18T08:36:35;49.67;;;39.53;;
45802;SDS011;31504;51.716;9.184;2022-08-18T08:39:54;50.88;;;39.47;;
45802;SDS011;31504;51.716;9.184;2022-08-18T08:43:15;53.50;;;42.28;;
45802;SDS011;31504;51.716;9.184;2022-08-18T08:46:37;56.67;;;43.42;;
45802;SDS011;31504;51.716;9.184;2022-08-18T08:49:48;58.92;;;45.65;;
45802;SDS011;31504;51.716;9.184;2022-08-18T08:52:58;61.00;;;44.25;;
45802;SDS011;31504;51.716;9.184;2022-08-18T08:56:19;63.55;;;47.00;;
45802;SDS011;31504;51.716;9.184;2022-08-18T08:59:22;58.35;;;45.97;;
45802;SDS011;31504;51.716;9.184;2022-08-18T09:02:29;59.03;;;44.58;;
45802;SDS011;31504;51.716;9.184;2022-08-18T09:12:34;67.43;;;48.85;;
45802;SDS011;31504;51.716;9.184;2022-08-18T09:22:43;62.20;;;48.45;;
45802;SDS011;31504;51.716;9.184;2022-08-18T09:25:54;57.80;;;45.53;;
45802;SDS011;31504;51.716;9.184;2022-08-18T09:28:58;58.05;;;45.42;;
45802;SDS011;31504;51.716;9.184;2022-08-18T09:35:24;58.90;;;46.53;;
45802;SDS011;31504;51.716;9.184;2022-08-18T09:38:51;52.03;;;42.38;;
45802;SDS011;31504;51.716;9.184;2022-08-18T09:42:15;49.55;;;39.35;;
45802;SDS011;31504;51.716;9.184;2022-08-18T09:45:38;54.47;;;42.05;;
45802;SDS011;31504;51.716;9.184;2022-08-18T09:50:30;50.00;;;39.53;;
45802;SDS011;31504;51.716;9.184;2022-08-18T09:55:51;41.33;;;33.75;;
45802;SDS011;31504;51.716;9.184;2022-08-18T09:58:55;41.90;;;34.90;;
45802;SDS011;31504;51.716;9.184;2022-08-18T10:02:11;41.58;;;33.63;;
45802;SDS011;31504;51.716;9.184;2022-08-18T10:05:32;37.47;;;32.05;;
45802;SDS011;31504;51.716;9.184;2022-08-18T10:08:41;38.38;;;30.92;;
45802;SDS011;31504;51.716;9.184;2022-08-18T10:15:38;35.97;;;30.40;;
45802;SDS011;31504;51.716;9.184;2022-08-18T10:22:43;36.05;;;30.02;;
45802;SDS011;31504;51.716;9.184;2022-08-18T10:25:46;35.95;;;28.90;;
45802;SDS011;31504;51.716;9.184;2022-08-18T10:28:54;33.50;;;28.70;;
45802;SDS011;31504;51.716;9.184;2022-08-18T10:34:57;37.10;;;29.92;;
45802;SDS011;31504;51.716;9.184;2022-08-18T10:37:58;33.88;;;29.70;;
45802;SDS011;31504;51.716;9.184;2022-08-18T10:41:12;32.03;;;28.25;;
45802;SDS011;31504;51.716;9.184;2022-08-18T10:44:41;31.17;;;26.92;;
45802;SDS011;31504;51.716;9.184;2022-08-18T10:47:44;34.67;;;26.92;;
45802;SDS011;31504;51.716;9.184;2022-08-18T10:54:51;32.67;;;26.42;;
45802;SDS011;31504;51.716;9.184;2022-08-18T10:58:03;28.30;;;24.67;;
45802;SDS011;31504;51.716;9.184;2022-08-18T11:01:31;28.40;;;24.98;;
45802;SDS011;31504;51.716;9.184;2022-08-18T11:04:45;33.25;;;27.77;;
45802;SDS011;31504;51.716;9.184;2022-08-18T11:07:47;35.22;;;28.42;;
45802;SDS011;31504;51.716;9.184;2022-08-18T11:10:53;34.78;;;29.05;;
45802;SDS011;31504;51.716;9.184;2022-08-18T11:17:32;28.40;;;24.65;;
45802;SDS011;31504;51.716;9.184;2022-08-18T11:20:42;28.77;;;25.30;;
45802;SDS011;31504;51.716;9.184;2022-08-18T11:23:43;27.70;;;24.75;;
45802;SDS011;31504;51.716;9.184;2022-08-18T11:29:49;30.70;;;26.80;;
45802;SDS011;31504;51.716;9.184;2022-08-18T11:32:50;30.23;;;26.60;;
45802;SDS011;31504;51.716;9.184;2022-08-18T11:35:52;29.33;;;25.17;;
45802;SDS011;31504;51.716;9.184;2022-08-18T11:38:58;27.63;;;24.58;;
45802;SDS011;31504;51.716;9.184;2022-08-18T11:41:59;27.50;;;24.58;;
45802;SDS011;31504;51.716;9.184;2022-08-18T11:45:22;27.50;;;23.27;;
45802;SDS011;31504;51.716;9.184;2022-08-18T11:48:35;29.17;;;25.33;;
45802;SDS011;31504;51.716;9.184;2022-08-18T11:51:52;30.25;;;24.90;;
45802;SDS011;31504;51.716;9.184;2022-08-18T11:55:03;28.77;;;25.52;;
45802;SDS011;31504;51.716;9.184;2022-08-18T11:58:05;29.50;;;25.58;;
45802;SDS011;31504;51.716;9.184;2022-08-18T12:01:05;27.25;;;24.35;;
45802;SDS011;31504;51.716;9.184;2022-08-18T12:07:09;27.90;;;24.98;;
45802;SDS011;31504;51.716;9.184;2022-08-18T12:10:21;27.48;;;22.95;;
45802;SDS011;31504;51.716;9.184;2022-08-18T12:13:23;30.38;;;24.85;;
45802;SDS011;31504;51.716;9.184;2022-08-18T12:16:38;30.92;;;24.98;;
45802;SDS011;31504;51.716;9.184;2022-08-18T12:19:40;29.08;;;23.90;;
45802;SDS011;31504;51.716;9.184;2022-08-18T12:22:42;29.17;;;23.25;;
45802;SDS011;31504;51.716;9.184;2022-08-18T12:25:43;27.25;;;22.33;;
45802;SDS011;31504;51.716;9.184;2022-08-18T12:28:44;26.25;;;22.02;;
45802;SDS011;31504;51.716;9.184;2022-08-18T12:31:45;26.08;;;22.92;;
45802;SDS011;31504;51.716;9.184;2022-08-18T12:34:47;24.23;;;21.63;;
45802;SDS011;31504;51.716;9.184;2022-08-18T12:37:48;26.77;;;23.50;;
45802;SDS011;31504;51.716;9.184;2022-08-18T12:40:48;25.92;;;22.17;;
45802;SDS011;31504;51.716;9.184;2022-08-18T12:43:49;27.25;;;21.65;;
45802;SDS011;31504;51.716;9.184;2022-08-18T12:46:49;23.65;;;21.05;;
45802;SDS011;31504;51.716;9.184;2022-08-18T12:49:51;25.50;;;22.20;;
45802;SDS011;31504;51.716;9.184;2022-08-18T12:52:52;24.98;;;22.38;;
45802;SDS011;31504;51.716;9.184;2022-08-18T12:55:52;25.10;;;21.63;;
45802;SDS011;31504;51.716;9.184;2022-08-18T12:58:53;24.50;;;22.00;;
45802;SDS011;31504;51.716;9.184;2022-08-18T13:01:54;25.27;;;22.50;;
45802;SDS011;31504;51.716;9.184;2022-08-18T13:04:54;24.80;;;22.15;;
45802;SDS011;31504;51.716;9.184;2022-08-18T13:07:56;25.48;;;19.83;;
45802;SDS011;31504;51.716;9.184;2022-08-18T13:10:59;24.65;;;21.00;;
45802;SDS011;31504;51.716;9.184;2022-08-18T13:14:00;22.17;;;19.23;;
45802;SDS011;31504;51.716;9.184;2022-08-18T13:17:01;24.52;;;21.10;;
45802;SDS011;31504;51.716;9.184;2022-08-18T13:20:07;22.15;;;18.73;;
45802;SDS011;31504;51.716;9.184;2022-08-18T13:23:12;23.38;;;20.55;;
45802;SDS011;31504;51.716;9.184;2022-08-18T13:26:16;23.58;;;20.52;;
45802;SDS011;31504;51.716;9.184;2022-08-18T13:29:27;25.30;;;20.95;;
45802;SDS011;31504;51.716;9.184;2022-08-18T13:32:27;23.95;;;20.83;;
45802;SDS011;31504;51.716;9.184;2022-08-18T13:35:28;24.80;;;21.77;;
45802;SDS011;31504;51.716;9.184;2022-08-18T13:38:28;23.80;;;20.45;;
45802;SDS011;31504;51.716;9.184;2022-08-18T13:41:29;26.20;;;22.88;;
45802;SDS011;31504;51.716;9.184;2022-08-18T13:44:30;33.00;;;29.48;;
45802;SDS011;31504;51.716;9.184;2022-08-18T13:47:31;38.15;;;33.60;;
45802;SDS011;31504;51.716;9.184;2022-08-18T13:50:32;42.60;;;36.92;;
45802;SDS011;31504;51.716;9.184;2022-08-18T13:53:34;50.05;;;42.08;;
45802;SDS011;31504;51.716;9.184;2022-08-18T13:56:35;54.33;;;46.17;;
45802;SDS011;31504;51.716;9.184;2022-08-18T13:59:36;49.75;;;44.40;;
45802;SDS011;31504;51.716;9.184;2022-08-18T14:02:37;44.88;;;39.67;;
45802;SDS011;31504;51.716;9.184;2022-08-18T14:05:38;40.42;;;35.38;;
45802;SDS011;31504;51.716;9.184;2022-08-18T14:08:39;40.75;;;36.45;;
45802;SDS011;31504;51.716;9.184;2022-08-18T14:11:40;42.25;;;35.58;;
45802;SDS011;31504;51.716;9.184;2022-08-18T14:14:40;40.15;;;35.83;;
45802;SDS011;31504;51.716;9.184;2022-08-18T14:17:41;46.30;;;38.45;;
45802;SDS011;31504;51.716;9.184;2022-08-18T14:20:42;41.97;;;35.47;;
45802;SDS011;31504;51.716;9.184;2022-08-18T14:24:01;38.08;;;33.97;;
45802;SDS011;31504;51.716;9.184;2022-08-18T14:27:24;34.03;;;30.40;;
45802;SDS011;31504;51.716;9.184;2022-08-18T14:30:27;36.03;;;31.17;;
45802;SDS011;31504;51.716;9.184;2022-08-18T14:33:29;40.45;;;35.40;;
45802;SDS011;31504;51.716;9.184;2022-08-18T14:36:30;51.53;;;43.22;;
45802;SDS011;31504;51.716;9.184;2022-08-18T14:39:31;44.75;;;39.13;;
45802;SDS011;31504;51.716;9.184;2022-08-18T14:42:32;41.65;;;37.15;;
45802;SDS011;31504;51.716;9.184;2022-08-18T14:45:33;39.58;;;35.30;;
45802;SDS011;31504;51.716;9.184;2022-08-18T14:48:33;43.03;;;38.40;;
45802;SDS011;31504;51.716;9.184;2022-08-18T14:51:35;46.97;;;41.78;;
45802;SDS011;31504;51.716;9.184;2022-08-18T14:54:38;53.20;;;46.08;;
45802;SDS011;31504;51.716;9.184;2022-08-18T14:57:38;50.58;;;44.10;;
45802;SDS011;31504;51.716;9.184;2022-08-18T15:00:39;49.50;;;43.53;;
45802;SDS011;31504;51.716;9.184;2022-08-18T15:03:40;50.05;;;44.65;;
45802;SDS011;31504;51.716;9.184;2022-08-18T15:06:41;54.28;;;45.30;;
45802;SDS011;31504;51.716;9.184;2022-08-18T15:09:41;42.53;;;38.15;;
45802;SDS011;31504;51.716;9.184;2022-08-18T15:12:42;38.45;;;34.00;;
45802;SDS011;31504;51.716;9.184;2022-08-18T15:15:43;34.55;;;31.00;;
45802;SDS011;31504;51.716;9.184;2022-08-18T15:18:44;33.10;;;29.20;;
45802;SDS011;31504;51.716;9.184;2022-08-18T15:21:45;27.73;;;24.85;;
45802;SDS011;31504;51.716;9.184;2022-08-18T15:25:05;25.88;;;23.00;;
45802;SDS011;31504;51.716;9.184;2022-08-18T15:28:25;22.08;;;19.73;;
45802;SDS011;31504;51.716;9.184;2022-08-18T15:31:26;22.70;;;19.83;;
45802;SDS011;31504;51.716;9.184;2022-08-18T15:34:27;22.55;;;20.15;;
45802;SDS011;31504;51.716;9.184;2022-08-18T15:37:28;19.52;;;17.60;;
45802;SDS011;31504;51.716;9.184;2022-08-18T15:40:32;17.45;;;15.65;;
45802;SDS011;31504;51.716;9.184;2022-08-18T15:43:32;17.23;;;15.45;;
45802;SDS011;31504;51.716;9.184;2022-08-18T15:46:34;17.25;;;15.40;;
45802;SDS011;31504;51.716;9.184;2022-08-18T15:49:35;16.25;;;14.07;;
45802;SDS011;31504;51.716;9.184;2022-08-18T15:52:37;19.17;;;17.35;;
45802;SDS011;31504;51.716;9.184;2022-08-18T15:55:45;16.45;;;14.85;;
45802;SDS011;31504;51.716;9.184;2022-08-18T15:58:45;15.38;;;13.85;;
45802;SDS011;31504;51.716;9.184;2022-08-18T16:01:46;15.55;;;14.05;;
45802;SDS011;31504;51.716;9.184;2022-08-18T16:04:49;16.15;;;14.55;;
45802;SDS011;31504;51.716;9.184;2022-08-18T16:07:50;15.15;;;13.55;;
45802;SDS011;31504;51.716;9.184;2022-08-18T16:10:51;15.57;;;13.98;;
45802;SDS011;31504;51.716;9.184;2022-08-18T16:13:52;15.63;;;14.07;;
45802;SDS011;31504;51.716;9.184;2022-08-18T16:16:53;14.70;;;13.30;;
45802;SDS011;31504;51.716;9.184;2022-08-18T16:19:53;14.35;;;13.05;;
45802;SDS011;31504;51.716;9.184;2022-08-18T16:22:54;14.88;;;13.52;;
45802;SDS011;31504;51.716;9.184;2022-08-18T16:25:59;15.05;;;13.60;;
45802;SDS011;31504;51.716;9.184;2022-08-18T16:29:01;16.17;;;14.45;;
45802;SDS011;31504;51.716;9.184;2022-08-18T16:32:02;15.25;;;13.90;;
45802;SDS011;31504;51.716;9.184;2022-08-18T16:35:03;19.38;;;17.23;;
45802;SDS011;31504;51.716;9.184;2022-08-18T16:38:05;21.40;;;19.17;;
45802;SDS011;31504;51.716;9.184;2022-08-18T16:41:09;20.88;;;18.85;;
45802;SDS011;31504;51.716;9.184;2022-08-18T16:44:13;26.40;;;23.80;;
45802;SDS011;31504;51.716;9.184;2022-08-18T16:47:15;22.77;;;20.27;;
45802;SDS011;31504;51.716;9.184;2022-08-18T16:50:17;23.73;;;21.23;;
45802;SDS011;31504;51.716;9.184;2022-08-18T16:53:18;21.55;;;19.40;;
45802;SDS011;31504;51.716;9.184;2022-08-18T16:56:21;19.75;;;17.30;;
45802;SDS011;31504;51.716;9.184;2022-08-18T16:59:24;21.77;;;19.48;;
45802;SDS011;31504;51.716;9.184;2022-08-18T17:02:43;22.15;;;19.77;;
45802;SDS011;31504;51.716;9.184;2022-08-18T17:09:04;20.60;;;17.55;;
45802;SDS011;31504;51.716;9.184;2022-08-18T17:12:06;21.67;;;19.48;;
45802;SDS011;31504;51.716;9.184;2022-08-18T17:15:07;24.52;;;22.13;;
45802;SDS011;31504;51.716;9.184;2022-08-18T17:18:07;26.40;;;23.60;;
45802;SDS011;31504;51.716;9.184;2022-08-18T17:21:11;25.77;;;23.10;;
45802;SDS011;31504;51.716;9.184;2022-08-18T17:24:13;27.23;;;24.52;;
45802;SDS011;31504;51.716;9.184;2022-08-18T17:27:15;22.70;;;20.40;;
45802;SDS011;31504;51.716;9.184;2022-08-18T17:30:18;20.85;;;18.88;;
45802;SDS011;31504;51.716;9.184;2022-08-18T17:33:21;20.80;;;18.60;;
45802;SDS011;31504;51.716;9.184;2022-08-18T17:36:31;19.02;;;16.42;;
45802;SDS011;31504;51.716;9.184;2022-08-18T17:39:45;19.67;;;17.77;;
45802;SDS011;31504;51.716;9.184;2022-08-18T17:42:52;20.27;;;18.25;;
45802;SDS011;31504;51.716;9.184;2022-08-18T17:45:56;20.27;;;18.38;;
45802;SDS011;31504;51.716;9.184;2022-08-18T17:49:05;26.77;;;24.02;;
45802;SDS011;31504;51.716;9.184;2022-08-18T17:52:16;35.13;;;31.35;;
45802;SDS011;31504;51.716;9.184;2022-08-18T17:55:27;36.03;;;31.25;;
45802;SDS011;31504;51.716;9.184;2022-08-18T17:58:36;32.70;;;29.17;;
45802;SDS011;31504;51.716;9.184;2022-08-18T18:01:41;36.53;;;32.75;;
45802;SDS011;31504;51.716;9.184;2022-08-18T18:04:43;42.20;;;37.58;;
45802;SDS011;31504;51.716;9.184;2022-08-18T18:10:51;46.80;;;41.92;;
45802;SDS011;31504;51.716;9.184;2022-08-18T18:13:51;39.03;;;35.05;;
45802;SDS011;31504;51.716;9.184;2022-08-18T18:23:30;27.40;;;24.65;;
45802;SDS011;31504;51.716;9.184;2022-08-18T18:26:38;26.20;;;23.52;;
45802;SDS011;31504;51.716;9.184;2022-08-18T18:29:51;24.00;;;21.58;;
45802;SDS011;31504;51.716;9.184;2022-08-18T18:32:57;21.15;;;19.02;;
45802;SDS011;31504;51.716;9.184;2022-08-18T18:36:01;19.58;;;17.67;;
45802;SDS011;31504;51.716;9.184;2022-08-18T18:39:05;18.02;;;16.20;;
45802;SDS011;31504;51.716;9.184;2022-08-18T18:42:15;16.50;;;14.85;;
45802;SDS011;31504;51.716;9.184;2022-08-18T18:45:23;15.82;;;14.50;;
45802;SDS011;31504;51.716;9.184;2022-08-18T18:48:26;14.35;;;13.05;;
45802;SDS011;31504;51.716;9.184;2022-08-18T18:55:05;13.77;;;12.48;;
45802;SDS011;31504;51.716;9.184;2022-08-18T19:02:00;14.88;;;13.48;;
45802;SDS011;31504;51.716;9.184;2022-08-18T19:08:38;13.73;;;12.43;;
45802;SDS011;31504;51.716;9.184;2022-08-18T19:15:22;12.05;;;10.82;;
45802;SDS011;31504;51.716;9.184;2022-08-18T19:18:26;11.98;;;10.98;;
45802;SDS011;31504;51.716;9.184;2022-08-18T19:21:37;12.25;;;11.15;;
45802;SDS011;31504;51.716;9.184;2022-08-18T19:24:41;12.60;;;11.45;;
45802;SDS011;31504;51.716;9.184;2022-08-18T19:28:19;12.10;;;11.00;;
45802;SDS011;31504;51.716;9.184;2022-08-18T19:31:34;12.50;;;11.30;;
45802;SDS011;31504;51.716;9.184;2022-08-18T19:34:39;11.98;;;10.98;;
45802;SDS011;31504;51.716;9.184;2022-08-18T19:40:56;11.95;;;10.85;;
45802;SDS011;31504;51.716;9.184;2022-08-18T19:44:36;11.55;;;10.45;;
45802;SDS011;31504;51.716;9.184;2022-08-18T19:47:48;10.75;;;9.82;;
45802;SDS011;31504;51.716;9.184;2022-08-18T19:51:04;12.05;;;10.80;;
45802;SDS011;31504;51.716;9.184;2022-08-18T19:57:53;11.38;;;10.30;;
45802;SDS011;31504;51.716;9.184;2022-08-18T20:01:28;11.80;;;10.70;;
45802;SDS011;31504;51.716;9.184;2022-08-18T20:05:10;11.45;;;10.45;;
45802;SDS011;31504;51.716;9.184;2022-08-18T20:15:14;10.27;;;9.38;;